Time;durP1;ratioP1;P1;durP2;ratioP2;P2;SDS_P1;SDS_P2;PMS_P1;PMS_P2;Temp;Humidity;BMP_temperature;BMP_pressure;BME280_temperature;BME280_humidity;BME280_pressure;Samples;Min_cycle;Max_cycle;Signal;HPM_P1;HPM_P2
2023/07/01 00:01:00;;;;;;;10.00;2.50;;;;;;;;;;5081398;27;20053;-77
2023/07/01 00:03:30;;;;;;;7.05;2.40;;;;;;;;;;5090116;28;20062;-77
2023/07/01 00:05:57;;;;;;;7.60;2.50;;;;;;;;;;5090722;27;20050;-77
2023/07/01 00:08:23;;;;;;;10.98;2.50;;;;;;;;;;5092628;27;20130;-87
2023/07/01 00:10:49;;;;;;;14.30;2.42;;;;;;;;;;5095963;27;20047;-85
2023/07/01 00:13:15;;;;;;;7.60;2.47;;;;;;;;;;5095440;27;20733;-82
2023/07/01 00:15:41;;;;;;;12.20;2.80;;;;;;;;;;5097166;27;20143;-85
2023/07/01 00:18:06;;;;;;;8.45;2.53;;;;;;;;;;5094602;27;20047;-80
2023/07/01 00:20:33;;;;;;;13.95;2.80;;;;;;;;;;5081418;28;20131;-84
2023/07/01 00:22:59;;;;;;;9.10;2.50;;;;;;;;;;5076227;27;20049;-77
2023/07/01 00:25:25;;;;;;;6.20;2.15;;;;;;;;;;5095067;27;20047;-78
2023/07/01 00:27:51;;;;;;;8.27;2.50;;;;;;;;;;5113924;27;20118;-82
2023/07/01 00:30:17;;;;;;;6.15;2.38;;;;;;;;;;5112991;27;20073;-79
2023/07/01 00:32:43;;;;;;;8.13;2.50;;;;;;;;;;5094261;27;20758;-78
2023/07/01 00:35:09;;;;;;;14.40;2.75;;;;;;;;;;5090849;27;20557;-80
2023/07/01 00:37:35;;;;;;;8.10;2.42;;;;;;;;;;5092284;27;20443;-77
2023/07/01 00:40:01;;;;;;;12.20;2.50;;;;;;;;;;5090796;27;20074;-80
2023/07/01 00:42:27;;;;;;;7.63;2.50;;;;;;;;;;5089852;27;20636;-76
2023/07/01 00:44:53;;;;;;;7.82;2.63;;;;;;;;;;5075806;27;20050;-80
2023/07/01 00:47:19;;;;;;;7.40;2.72;;;;;;;;;;5089070;27;20398;-78
2023/07/01 00:49:46;;;;;;;8.48;2.40;;;;;;;;;;5094687;27;20097;-81
2023/07/01 00:52:12;;;;;;;6.30;2.28;;;;;;;;;;5091705;27;20051;-78
2023/07/01 00:54:38;;;;;;;5.97;2.17;;;;;;;;;;5096056;27;20407;-77
2023/07/01 00:57:04;;;;;;;9.30;2.38;;;;;;;;;;5093540;27;20071;-78
2023/07/01 00:59:32;;;;;;;9.07;2.58;;;;;;;;;;5086726;27;20080;-76
2023/07/01 01:02:00;;;;;;;10.80;2.40;;;;;;;;;;5097562;27;20135;-79
2023/07/01 01:04:44;;;;;;;8.65;2.58;;;;;;;;;;5074515;27;20146;-77
2023/07/01 01:07:14;;;;;;;7.22;2.60;;;;;;;;;;5114850;27;20050;-78
2023/07/01 01:09:47;;;;;;;8.85;2.65;;;;;;;;;;5109108;27;20506;-80
2023/07/01 01:12:13;;;;;;;6.90;2.17;;;;;;;;;;5110806;27;20058;-79
2023/07/01 01:14:41;;;;;;;10.55;2.95;;;;;;;;;;5086994;27;20054;-79
2023/07/01 01:17:09;;;;;;;9.55;2.67;;;;;;;;;;5093625;27;20822;-79
2023/07/01 01:19:45;;;;;;;7.05;2.38;;;;;;;;;;5087570;27;20501;-80
2023/07/01 01:22:20;;;;;;;9.55;2.80;;;;;;;;;;5103295;27;20043;-77
2023/07/01 01:24:54;;;;;;;12.13;3.20;;;;;;;;;;5082065;27;20054;-79
2023/07/01 01:27:30;;;;;;;10.13;3.10;;;;;;;;;;5087218;27;20131;-83
2023/07/01 01:29:56;;;;;;;8.40;2.60;;;;;;;;;;5082045;27;20088;-79
2023/07/01 01:32:22;;;;;;;7.20;2.55;;;;;;;;;;5087635;27;20896;-78
2023/07/01 01:34:48;;;;;;;8.38;2.60;;;;;;;;;;5095774;27;20058;-80
2023/07/01 01:37:16;;;;;;;9.05;2.70;;;;;;;;;;5088985;27;20043;-80
2023/07/01 01:39:45;;;;;;;9.63;2.63;;;;;;;;;;5111651;27;20051;-80
2023/07/01 01:42:17;;;;;;;9.50;2.60;;;;;;;;;;5088003;27;20137;-78
2023/07/01 01:44:47;;;;;;;8.77;2.65;;;;;;;;;;5077326;27;20157;-78
2023/07/01 01:47:16;;;;;;;9.55;2.78;;;;;;;;;;5092258;27;20100;-76
2023/07/01 01:49:42;;;;;;;;;;;;;;;;;;5094270;27;20392;-75
2023/07/01 01:52:10;;;;;;;7.03;2.88;;;;;;;;;;5074752;27;19920;-78
2023/07/01 01:54:37;;;;;;;11.93;3.20;;;;;;;;;;5073740;27;20036;-76
2023/07/01 01:57:03;;;;;;;11.43;3.30;;;;;;;;;;5095913;27;20516;-80
2023/07/01 01:59:29;;;;;;;9.95;3.20;;;;;;;;;;5108890;27;20050;-77
2023/07/01 02:01:55;;;;;;;12.35;3.28;;;;;;;;;;5086885;27;20066;-76
2023/07/01 02:04:21;;;;;;;9.02;3.45;;;;;;;;;;5092518;27;20136;-78
2023/07/01 02:06:47;;;;;;;11.55;3.80;;;;;;;;;;5094376;27;20126;-78
2023/07/01 02:09:13;;;;;;;9.75;3.70;;;;;;;;;;5088430;27;20039;-83
2023/07/01 02:11:39;;;;;;;9.43;3.40;;;;;;;;;;5091479;27;20046;-83
2023/07/01 02:14:05;;;;;;;9.52;3.53;;;;;;;;;;5095163;27;20043;-82
2023/07/01 02:16:32;;;;;;;9.13;3.63;;;;;;;;;;5073889;27;20924;-83
2023/07/01 02:18:58;;;;;;;9.65;4.03;;;;;;;;;;5113827;27;20047;-86
2023/07/01 02:21:25;;;;;;;8.60;3.53;;;;;;;;;;5070621;27;20051;-80
2023/07/01 02:23:50;;;;;;;9.93;3.90;;;;;;;;;;5090981;27;20151;-82
2023/07/01 02:26:16;;;;;;;8.65;3.60;;;;;;;;;;5090470;27;20053;-83
2023/07/01 02:28:42;;;;;;;9.85;3.60;;;;;;;;;;5095113;27;20506;-79
2023/07/01 02:31:09;;;;;;;8.55;3.67;;;;;;;;;;5088429;27;20050;-76
2023/07/01 02:33:34;;;;;;;9.73;3.70;;;;;;;;;;5089366;27;20088;-76
2023/07/01 02:36:00;;;;;;;7.22;3.90;;;;;;;;;;5093101;27;20046;-75
2023/07/01 02:38:26;;;;;;;8.60;3.95;;;;;;;;;;5094005;27;20058;-76
2023/07/01 02:40:52;;;;;;;12.10;4.20;;;;;;;;;;5090880;27;20043;-82
2023/07/01 02:43:18;;;;;;;12.23;4.10;;;;;;;;;;5088628;27;20115;-80
2023/07/01 02:45:44;;;;;;;7.97;3.75;;;;;;;;;;5112700;27;20785;-77
2023/07/01 02:48:10;;;;;;;12.27;4.20;;;;;;;;;;5086300;28;20054;-76
2023/07/01 02:50:36;;;;;;;10.75;3.90;;;;;;;;;;5095452;27;20039;-80
2023/07/01 02:53:02;;;;;;;9.15;3.88;;;;;;;;;;5068065;27;20047;-81
2023/07/01 02:55:29;;;;;;;10.15;4.22;;;;;;;;;;5072374;27;20154;-82
2023/07/01 02:57:55;;;;;;;13.02;4.03;;;;;;;;;;5086967;28;20067;-76
2023/07/01 03:00:21;;;;;;;8.02;3.70;;;;;;;;;;5064637;27;20046;-76
2023/07/01 03:02:47;;;;;;;9.60;3.88;;;;;;;;;;5106886;27;20067;-76
2023/07/01 03:05:13;;;;;;;9.57;3.92;;;;;;;;;;5082099;28;20048;-76
2023/07/01 03:07:39;;;;;;;14.25;3.78;;;;;;;;;;5088611;28;20047;-79
2023/07/01 03:10:06;;;;;;;9.77;3.85;;;;;;;;;;5075488;28;20515;-79
2023/07/01 03:12:32;;;;;;;8.98;3.80;;;;;;;;;;5091178;28;20234;-76
2023/07/01 03:14:58;;;;;;;10.18;3.55;;;;;;;;;;5101664;27;20043;-82
2023/07/01 03:17:24;;;;;;;10.32;3.60;;;;;;;;;;5106259;28;21012;-80
2023/07/01 03:19:51;;;;;;;8.23;3.08;;;;;;;;;;5110087;28;20471;-81
2023/07/01 03:22:17;;;;;;;9.77;3.67;;;;;;;;;;5069640;28;20047;-84
2023/07/01 03:24:43;;;;;;;9.02;3.30;;;;;;;;;;5089508;28;20143;-82
2023/07/01 03:27:09;;;;;;;8.73;3.40;;;;;;;;;;5088057;28;20043;-78
2023/07/01 03:29:35;;;;;;;9.52;3.25;;;;;;;;;;5091902;28;20154;-84
2023/07/01 03:32:03;;;;;;;10.45;3.55;;;;;;;;;;5089900;28;20043;-76
2023/07/01 03:34:29;;;;;;;11.20;3.78;;;;;;;;;;5093880;28;20049;-84
2023/07/01 03:36:55;;;;;;;6.45;3.72;;;;;;;;;;5091939;28;20737;-78
2023/07/01 03:39:21;;;;;;;8.43;4.18;;;;;;;;;;5093871;28;20035;-84
2023/07/01 03:41:47;;;;;;;8.50;4.03;;;;;;;;;;5091532;28;20100;-79
2023/07/01 03:44:13;;;;;;;12.02;4.43;;;;;;;;;;5090526;28;20061;-80
2023/07/01 03:46:39;;;;;;;8.98;4.18;;;;;;;;;;5093571;28;20043;-82
2023/07/01 03:49:06;;;;;;;9.27;3.95;;;;;;;;;;5090041;28;20042;-76
2023/07/01 03:51:32;;;;;;;8.55;4.57;;;;;;;;;;5096077;28;20073;-83
2023/07/01 03:53:58;;;;;;;10.90;4.15;;;;;;;;;;5087948;28;20541;-84
2023/07/01 03:56:25;;;;;;;9.50;4.85;;;;;;;;;;5090275;28;20043;-78
2023/07/01 03:58:51;;;;;;;16.15;4.28;;;;;;;;;;5091238;28;20421;-78
2023/07/01 04:01:17;;;;;;;9.57;4.05;;;;;;;;;;5091253;28;20107;-78
2023/07/01 04:03:44;;;;;;;7.18;3.95;;;;;;;;;;5094571;28;20050;-79
2023/07/01 04:06:10;;;;;;;7.28;3.95;;;;;;;;;;5074235;28;20051;-80
2023/07/01 04:08:36;;;;;;;9.10;4.22;;;;;;;;;;5076600;28;20052;-80
2023/07/01 04:11:02;;;;;;;10.00;4.53;;;;;;;;;;5087092;28;20100;-83
2023/07/01 04:13:28;;;;;;;8.57;3.80;;;;;;;;;;5090005;28;20055;-84
2023/07/01 04:15:54;;;;;;;22.58;5.13;;;;;;;;;;5083613;28;20044;-83
2023/07/01 04:18:20;;;;;;;6.97;3.72;;;;;;;;;;5094364;28;20046;-83
2023/07/01 04:20:46;;;;;;;6.95;4.60;;;;;;;;;;5093546;28;20036;-83
2023/07/01 04:23:13;;;;;;;7.32;4.30;;;;;;;;;;5093106;28;20047;-81
2023/07/01 04:25:39;;;;;;;9.93;4.03;;;;;;;;;;5087610;28;20050;-77
2023/07/01 04:28:08;;;;;;;7.95;4.07;;;;;;;;;;5090941;28;20145;-82
2023/07/01 04:30:34;;;;;;;6.18;3.45;;;;;;;;;;5090819;28;20044;-80
2023/07/01 04:33:00;;;;;;;8.32;4.05;;;;;;;;;;5089163;28;20041;-82
2023/07/01 04:35:26;;;;;;;9.00;4.55;;;;;;;;;;5091231;28;20051;-84
2023/07/01 04:37:51;;;;;;;10.30;4.18;;;;;;;;;;5089224;28;20051;-82
2023/07/01 04:40:17;;;;;;;7.90;4.45;;;;;;;;;;5088607;28;20040;-80
2023/07/01 04:42:51;;;;;;;11.25;4.50;;;;;;;;;;5089846;27;20468;-80
2023/07/01 04:45:18;;;;;;;7.15;4.07;;;;;;;;;;5087142;28;20069;-81
2023/07/01 04:47:45;;;;;;;7.18;4.25;;;;;;;;;;5089375;28;20052;-77
2023/07/01 04:50:11;;;;;;;9.27;4.30;;;;;;;;;;5088980;28;20126;-76
2023/07/01 04:52:37;;;;;;;7.72;4.45;;;;;;;;;;5092123;28;20051;-78
2023/07/01 04:55:03;;;;;;;10.00;3.67;;;;;;;;;;5086567;28;20043;-77
2023/07/01 04:57:29;;;;;;;7.97;4.22;;;;;;;;;;5095638;28;20149;-83
2023/07/01 04:59:58;;;;;;;10.60;4.03;;;;;;;;;;5082619;28;20043;-82
2023/07/01 05:02:24;;;;;;;10.52;4.13;;;;;;;;;;5081324;28;20051;-87
2023/07/01 05:04:50;;;;;;;6.65;4.57;;;;;;;;;;5085588;28;20059;-78
2023/07/01 05:07:16;;;;;;;11.05;4.40;;;;;;;;;;5092021;28;20124;-86
2023/07/01 05:09:42;;;;;;;8.32;3.80;;;;;;;;;;5081600;28;20035;-77
2023/07/01 05:12:08;;;;;;;9.75;4.00;;;;;;;;;;5081869;28;20048;-79
2023/07/01 05:14:34;;;;;;;5.45;3.90;;;;;;;;;;5094076;27;21169;-84
2023/07/01 05:17:00;;;;;;;8.25;4.32;;;;;;;;;;5082834;28;20047;-82
2023/07/01 05:19:26;;;;;;;4.60;3.50;;;;;;;;;;5063769;28;20389;-78
2023/07/01 05:21:53;;;;;;;7.68;3.78;;;;;;;;;;5079263;28;20179;-77
2023/07/01 05:24:19;;;;;;;8.23;3.80;;;;;;;;;;5079385;28;20027;-75
2023/07/01 05:26:49;;;;;;;9.30;3.92;;;;;;;;;;5090736;28;21062;-81
2023/07/01 05:29:15;;;;;;;10.57;3.90;;;;;;;;;;5070825;28;20043;-85
2023/07/01 05:31:41;;;;;;;9.05;4.20;;;;;;;;;;5089233;28;21880;-81
2023/07/01 05:34:07;;;;;;;6.20;4.35;;;;;;;;;;5089522;28;20101;-79
2023/07/01 05:36:33;;;;;;;10.27;4.35;;;;;;;;;;5075085;28;20069;-85
2023/07/01 05:38:59;;;;;;;7.25;4.18;;;;;;;;;;5087819;28;20085;-78
2023/07/01 05:41:25;;;;;;;8.20;4.07;;;;;;;;;;5092549;28;20046;-84
2023/07/01 05:43:51;;;;;;;8.57;4.07;;;;;;;;;;5088625;28;20766;-78
2023/07/01 05:46:17;;;;;;;10.20;4.30;;;;;;;;;;5070188;28;20039;-79
2023/07/01 05:48:43;;;;;;;7.82;3.97;;;;;;;;;;5086967;28;20039;-83
2023/07/01 05:51:09;;;;;;;9.13;4.15;;;;;;;;;;5089090;28;20044;-85
2023/07/01 05:53:35;;;;;;;9.30;4.18;;;;;;;;;;5088517;28;20623;-79
2023/07/01 05:56:02;;;;;;;9.40;4.00;;;;;;;;;;5089371;28;20048;-78
2023/07/01 05:58:28;;;;;;;11.25;3.90;;;;;;;;;;5089884;28;20192;-80
2023/07/01 06:00:54;;;;;;;12.07;4.38;;;;;;;;;;5089633;28;20583;-84
2023/07/01 06:03:20;;;;;;;14.00;3.90;;;;;;;;;;5089421;28;20081;-80
2023/07/01 06:05:46;;;;;;;8.45;3.97;;;;;;;;;;5089026;28;20575;-78
2023/07/01 06:08:12;;;;;;;8.55;4.07;;;;;;;;;;5090502;28;20042;-77
2023/07/01 06:10:38;;;;;;;9.32;4.22;;;;;;;;;;5069359;28;20365;-75
2023/07/01 06:13:04;;;;;;;8.32;4.25;;;;;;;;;;5089028;28;20048;-82
2023/07/01 06:15:30;;;;;;;9.10;4.20;;;;;;;;;;5068813;28;20122;-80
2023/07/01 06:17:57;;;;;;;9.52;3.92;;;;;;;;;;5093225;28;20065;-83
2023/07/01 06:20:23;;;;;;;7.85;4.03;;;;;;;;;;5086381;28;20051;-81
2023/07/01 06:22:49;;;;;;;7.07;4.00;;;;;;;;;;5087680;28;20040;-78
2023/07/01 06:25:15;;;;;;;12.55;4.20;;;;;;;;;;5088259;28;20047;-78
2023/07/01 06:27:40;;;;;;;17.08;4.20;;;;;;;;;;5088208;28;20120;-79
2023/07/01 06:30:07;;;;;;;6.93;4.00;;;;;;;;;;5085579;28;20062;-84
2023/07/01 06:32:33;;;;;;;11.20;4.47;;;;;;;;;;5087307;28;20040;-77
2023/07/01 06:34:59;;;;;;;10.98;3.63;;;;;;;;;;5087965;28;20043;-79
2023/07/01 06:37:25;;;;;;;9.68;4.05;;;;;;;;;;5082695;28;20645;-80
2023/07/01 06:39:51;;;;;;;8.95;4.40;;;;;;;;;;5067770;28;20511;-80
2023/07/01 06:42:17;;;;;;;9.23;4.72;;;;;;;;;;5072207;28;20058;-80
2023/07/01 06:44:43;;;;;;;10.95;4.70;;;;;;;;;;5088078;28;20073;-82
2023/07/01 06:47:09;;;;;;;9.07;4.63;;;;;;;;;;5089403;28;20031;-81
2023/07/01 06:49:35;;;;;;;8.45;5.00;;;;;;;;;;5085845;28;20044;-81
2023/07/01 06:52:02;;;;;;;8.55;5.00;;;;;;;;;;5092112;28;20050;-79
2023/07/01 06:54:28;;;;;;;6.88;5.07;;;;;;;;;;5089393;28;20078;-82
2023/07/01 06:56:54;;;;;;;7.63;4.80;;;;;;;;;;5086420;28;20139;-80
2023/07/01 06:59:20;;;;;;;7.47;4.95;;;;;;;;;;5082031;28;20040;-79
2023/07/01 07:01:46;;;;;;;7.05;4.70;;;;;;;;;;5086612;28;20160;-78
2023/07/01 07:04:12;;;;;;;5.57;4.63;;;;;;;;;;5073509;28;20040;-80
2023/07/01 07:06:38;;;;;;;7.20;4.70;;;;;;;;;;5086314;28;20044;-78
2023/07/01 07:09:04;;;;;;;7.53;5.22;;;;;;;;;;5094134;28;20040;-79
2023/07/01 07:11:31;;;;;;;8.30;5.13;;;;;;;;;;5064415;28;20566;-81
2023/07/01 07:13:57;;;;;;;5.95;4.78;;;;;;;;;;5052964;28;20047;-78
2023/07/01 07:16:23;;;;;;;7.60;4.57;;;;;;;;;;5036652;28;20399;-77
2023/07/01 07:18:49;;;;;;;8.85;4.55;;;;;;;;;;5057674;28;20048;-84
2023/07/01 07:21:15;;;;;;;5.25;4.22;;;;;;;;;;5057413;28;20142;-83
2023/07/01 07:23:41;;;;;;;6.15;4.35;;;;;;;;;;5046839;28;20267;-81
2023/07/01 07:26:09;;;;;;;6.05;4.05;;;;;;;;;;5074671;28;20483;-83
2023/07/01 07:28:38;;;;;;;13.50;4.17;;;;;;;;;;5063491;28;20109;-78
2023/07/01 07:31:04;;;;;;;7.85;4.80;;;;;;;;;;5058169;28;20055;-83
2023/07/01 07:33:30;;;;;;;4.97;4.22;;;;;;;;;;5040428;28;20062;-84
2023/07/01 07:35:56;;;;;;;8.57;4.20;;;;;;;;;;5076607;28;20059;-85
2023/07/01 07:38:22;;;;;;;7.95;3.95;;;;;;;;;;5051147;28;20097;-80
2023/07/01 07:40:48;;;;;;;5.93;3.88;;;;;;;;;;5068032;28;20459;-84
2023/07/01 07:43:14;;;;;;;6.45;4.13;;;;;;;;;;5039753;28;20692;-86
2023/07/01 07:45:40;;;;;;;6.97;4.22;;;;;;;;;;5063727;28;20031;-80
2023/07/01 07:48:06;;;;;;;4.70;4.00;;;;;;;;;;5074345;28;20081;-79
2023/07/01 07:50:38;;;;;;;6.15;4.20;;;;;;;;;;5079386;28;20396;-85
2023/07/01 07:53:04;;;;;;;7.45;3.95;;;;;;;;;;5040169;28;20082;-85
2023/07/01 07:55:33;;;;;;;4.80;3.92;;;;;;;;;;5044271;28;20121;-85
2023/07/01 07:58:00;;;;;;;6.97;4.22;;;;;;;;;;5039470;28;20146;-87
2023/07/01 08:00:27;;;;;;;5.35;3.80;;;;;;;;;;5068074;28;20052;-82
2023/07/01 08:02:53;;;;;;;7.38;3.95;;;;;;;;;;5068858;28;20396;-81
2023/07/01 08:05:23;;;;;;;5.25;3.88;;;;;;;;;;5074173;28;20082;-86
2023/07/01 08:07:49;;;;;;;7.40;4.50;;;;;;;;;;5068658;28;20480;-84
2023/07/01 08:10:16;;;;;;;5.32;4.13;;;;;;;;;;5062086;27;20063;-82
2023/07/01 08:12:42;;;;;;;10.18;4.10;;;;;;;;;;5099625;27;20610;-85
2023/07/01 08:15:09;;;;;;;29.55;5.47;;;;;;;;;;5101300;27;20919;-85
2023/07/01 08:17:35;;;;;;;7.13;4.30;;;;;;;;;;5097708;27;20079;-80
2023/07/01 08:20:01;;;;;;;5.25;4.20;;;;;;;;;;5096980;27;20051;-85
2023/07/01 08:22:27;;;;;;;7.00;4.68;;;;;;;;;;5096509;28;20047;-81
2023/07/01 08:24:54;;;;;;;6.20;4.68;;;;;;;;;;5105091;27;20050;-90
2023/07/01 08:27:20;;;;;;;5.75;4.63;;;;;;;;;;5077878;28;20554;-84
2023/07/01 08:29:47;;;;;;;6.38;4.40;;;;;;;;;;5085860;27;20044;-83
2023/07/01 08:32:13;;;;;;;5.97;4.30;;;;;;;;;;5092550;27;20043;-79
2023/07/01 08:34:39;;;;;;;5.30;3.92;;;;;;;;;;5089168;27;20743;-84
2023/07/01 08:37:05;;;;;;;4.93;4.50;;;;;;;;;;5092986;28;20047;-83
2023/07/01 08:39:31;;;;;;;4.93;4.07;;;;;;;;;;5054456;27;21015;-83
2023/07/01 08:42:03;;;;;;;7.05;4.55;;;;;;;;;;5099127;27;20514;-85
2023/07/01 08:44:30;;;;;;;5.85;4.30;;;;;;;;;;5089116;27;20071;-81
2023/07/01 08:46:56;;;;;;;5.30;4.35;;;;;;;;;;5094149;27;20436;-82
2023/07/01 08:49:23;;;;;;;6.82;4.50;;;;;;;;;;5095448;27;20925;-81
2023/07/01 08:51:51;;;;;;;4.53;4.10;;;;;;;;;;5092297;27;21009;-86
2023/07/01 08:54:17;;;;;;;5.13;4.63;;;;;;;;;;5076807;28;20946;-80
2023/07/01 08:56:47;;;;;;;5.93;4.75;;;;;;;;;;5070658;28;20142;-81
2023/07/01 08:59:14;;;;;;;4.85;4.32;;;;;;;;;;5062913;28;20071;-85
2023/07/01 09:01:43;;;;;;;7.22;4.00;;;;;;;;;;5061719;28;20042;-85
2023/07/01 09:04:09;;;;;;;11.00;4.60;;;;;;;;;;5080237;28;20373;-87
2023/07/01 09:06:35;;;;;;;8.00;4.85;;;;;;;;;;5057420;28;20058;-82
2023/07/01 09:09:01;;;;;;;5.75;5.25;;;;;;;;;;5057079;28;20047;-83
2023/07/01 09:11:28;;;;;;;7.50;5.55;;;;;;;;;;5052599;28;20113;-79
2023/07/01 09:13:55;;;;;;;7.05;5.90;;;;;;;;;;5033862;28;20079;-85
2023/07/01 09:16:32;;;;;;;7.22;5.82;;;;;;;;;;5042254;28;20090;-85
2023/07/01 09:19:13;;;;;;;8.68;5.47;;;;;;;;;;5041568;28;20053;-78
2023/07/01 09:21:39;;;;;;;6.88;6.18;;;;;;;;;;5052437;28;20052;-81
2023/07/01 09:24:06;;;;;;;6.60;6.00;;;;;;;;;;5038021;28;20052;-80
2023/07/01 09:26:32;;;;;;;7.15;6.03;;;;;;;;;;5034165;28;20509;-81
2023/07/01 09:28:59;;;;;;;6.90;6.13;;;;;;;;;;5033519;28;20049;-83
2023/07/01 09:31:28;;;;;;;6.25;5.65;;;;;;;;;;5059605;28;20519;-86
2023/07/01 09:33:59;;;;;;;7.55;6.13;;;;;;;;;;5053972;28;20164;-81
2023/07/01 09:36:26;;;;;;;7.97;6.32;;;;;;;;;;5053851;28;20059;-80
2023/07/01 09:38:52;;;;;;;6.93;6.20;;;;;;;;;;5038244;28;20048;-83
2023/07/01 09:41:19;;;;;;;6.57;5.88;;;;;;;;;;5038550;28;20423;-80
2023/07/01 09:43:45;;;;;;;7.90;5.45;;;;;;;;;;5045178;28;20048;-86
2023/07/01 09:46:12;;;;;;;6.60;5.75;;;;;;;;;;5073236;28;20409;-84
2023/07/01 09:48:38;;;;;;;6.95;5.55;;;;;;;;;;5072840;28;20039;-86
2023/07/01 09:51:05;;;;;;;5.63;5.13;;;;;;;;;;5077712;28;20110;-82
2023/07/01 09:53:32;;;;;;;5.90;5.30;;;;;;;;;;5071645;28;20169;-83
2023/07/01 09:55:59;;;;;;;5.80;5.30;;;;;;;;;;5054820;28;20483;-81
2023/07/01 09:58:26;;;;;;;8.30;5.43;;;;;;;;;;5051649;28;20900;-81
2023/07/01 10:00:52;;;;;;;7.18;5.30;;;;;;;;;;5053349;28;20032;-84
2023/07/01 10:03:19;;;;;;;8.00;5.35;;;;;;;;;;5054578;28;20044;-83
2023/07/01 10:05:46;;;;;;;7.35;5.13;;;;;;;;;;5077854;28;20523;-79
2023/07/01 10:08:12;;;;;;;6.38;4.75;;;;;;;;;;5084920;28;20455;-87
2023/07/01 10:10:38;;;;;;;5.85;4.90;;;;;;;;;;5045537;28;20112;-88
2023/07/01 10:13:05;;;;;;;8.27;4.72;;;;;;;;;;5054579;28;20047;-79
2023/07/01 10:15:39;;;;;;;5.40;4.90;;;;;;;;;;5081282;27;20086;-84
2023/07/01 10:18:22;;;;;;;5.38;4.88;;;;;;;;;;5082809;28;20058;-85
2023/07/01 10:20:50;;;;;;;5.55;5.05;;;;;;;;;;5104302;27;20137;-84
2023/07/01 10:23:18;;;;;;;5.72;5.20;;;;;;;;;;5071547;27;20066;-82
2023/07/01 10:25:44;;;;;;;5.82;5.28;;;;;;;;;;5064750;27;20428;-82
2023/07/01 10:28:11;;;;;;;5.80;5.22;;;;;;;;;;5102958;27;21030;-84
2023/07/01 10:30:43;;;;;;;5.97;5.40;;;;;;;;;;5068212;27;20571;-82
2023/07/01 10:33:37;;;;;;;6.18;5.57;;;;;;;;;;5082288;27;20098;-85
2023/07/01 10:36:04;;;;;;;6.47;5.90;;;;;;;;;;5069138;27;20532;-86
2023/07/01 10:38:30;;;;;;;6.78;5.97;;;;;;;;;;5086490;27;20481;-81
2023/07/01 10:40:57;;;;;;;5.80;5.20;;;;;;;;;;5086552;27;21020;-80
2023/07/01 10:43:36;;;;;;;6.20;5.55;;;;;;;;;;5085265;27;20047;-82
2023/07/01 10:46:22;;;;;;;5.68;5.28;;;;;;;;;;5092183;27;20074;-85
2023/07/01 10:49:03;;;;;;;8.32;6.00;;;;;;;;;;5105938;27;20058;-81
2023/07/01 10:51:31;;;;;;;7.28;5.82;;;;;;;;;;5092243;27;20678;-81
2023/07/01 10:53:58;;;;;;;5.82;5.32;;;;;;;;;;5091051;27;20074;-81
2023/07/01 10:56:24;;;;;;;6.15;5.60;;;;;;;;;;5088351;27;20499;-82
2023/07/01 10:59:09;;;;;;;6.78;6.18;;;;;;;;;;5091568;27;20539;-82
2023/07/01 11:01:42;;;;;;;6.90;6.30;;;;;;;;;;5087018;27;20047;-84
2023/07/01 11:04:08;;;;;;;6.60;5.90;;;;;;;;;;5107370;27;20046;-81
2023/07/01 11:06:53;;;;;;;8.25;6.30;;;;;;;;;;5105684;27;20047;-83
2023/07/01 11:09:31;;;;;;;8.02;7.10;;;;;;;;;;5095091;27;20624;-81
2023/07/01 11:11:57;;;;;;;6.70;6.10;;;;;;;;;;5072579;28;20043;-81
2023/07/01 11:14:34;;;;;;;9.38;6.47;;;;;;;;;;5107871;27;20123;-80
2023/07/01 11:17:06;;;;;;;7.60;6.50;;;;;;;;;;5107256;27;20050;-80
2023/07/01 11:19:32;;;;;;;7.30;6.60;;;;;;;;;;5103814;27;20089;-80
2023/07/01 11:21:59;;;;;;;10.07;7.03;;;;;;;;;;5089707;28;20390;-85
2023/07/01 11:24:26;;;;;;;14.60;5.63;;;;;;;;;;5090931;27;20047;-83
2023/07/01 11:26:52;;;;;;;7.07;2.40;;;;;;;;;;5115529;27;20116;-82
2023/07/01 11:29:19;;;;;;;6.38;1.88;;;;;;;;;;5091778;27;20051;-83
2023/07/01 11:31:45;;;;;;;3.10;1.75;;;;;;;;;;5099575;27;20046;-82
2023/07/01 11:34:14;;;;;;;3.70;1.70;;;;;;;;;;5091816;27;20079;-79
2023/07/01 11:36:44;;;;;;;2.67;2.20;;;;;;;;;;5100080;27;20103;-81
2023/07/01 11:39:13;;;;;;;5.05;2.70;;;;;;;;;;5095448;27;20054;-80
2023/07/01 11:41:39;;;;;;;2.42;2.00;;;;;;;;;;5096043;27;20072;-80
2023/07/01 11:44:10;;;;;;;2.40;1.92;;;;;;;;;;5077920;27;20122;-79
2023/07/01 11:46:37;;;;;;;2.65;1.65;;;;;;;;;;5093402;27;20154;-79
2023/07/01 11:49:13;;;;;;;2.58;1.60;;;;;;;;;;5096372;27;20039;-80
2023/07/01 11:51:44;;;;;;;1.80;1.40;;;;;;;;;;5094788;27;20047;-81
2023/07/01 11:54:10;;;;;;;1.42;1.10;;;;;;;;;;5097738;27;20665;-81
2023/07/01 11:56:36;;;;;;;1.52;1.00;;;;;;;;;;5091463;27;20054;-79
2023/07/01 11:59:02;;;;;;;2.30;1.00;;;;;;;;;;5097601;27;20039;-80
2023/07/01 12:01:28;;;;;;;2.38;0.70;;;;;;;;;;5079038;27;20868;-78
2023/07/01 12:03:55;;;;;;;1.90;0.80;;;;;;;;;;5081588;27;20043;-81
2023/07/01 12:06:24;;;;;;;0.90;0.85;;;;;;;;;;5094645;27;20043;-79
2023/07/01 12:08:51;;;;;;;1.90;1.00;;;;;;;;;;5096346;27;20043;-80
2023/07/01 12:11:17;;;;;;;1.65;1.02;;;;;;;;;;5083357;27;21673;-79
2023/07/01 12:13:43;;;;;;;1.48;1.10;;;;;;;;;;5098494;27;20129;-79
2023/07/01 12:16:09;;;;;;;1.80;1.00;;;;;;;;;;5099276;27;20192;-80
2023/07/01 12:18:35;;;;;;;3.20;1.40;;;;;;;;;;5077842;27;20035;-83
2023/07/01 12:21:10;;;;;;;1.23;1.10;;;;;;;;;;5118277;27;20085;-83
2023/07/01 12:23:40;;;;;;;3.63;1.83;;;;;;;;;;5111022;27;20047;-83
2023/07/01 12:26:06;;;;;;;1.65;1.55;;;;;;;;;;5111669;27;20042;-82
2023/07/01 12:28:39;;;;;;;5.70;1.92;;;;;;;;;;5115987;27;20047;-82
2023/07/01 12:31:06;;;;;;;2.50;2.25;;;;;;;;;;5100081;27;20092;-82
2023/07/01 12:33:32;;;;;;;2.28;2.08;;;;;;;;;;5111561;27;20434;-82
2023/07/01 12:35:59;;;;;;;4.07;2.20;;;;;;;;;;5108891;27;20035;-81
2023/07/01 12:38:25;;;;;;;3.28;2.50;;;;;;;;;;5090500;27;20047;-81
2023/07/01 12:40:55;;;;;;;3.67;2.85;;;;;;;;;;5106655;27;20117;-82
2023/07/01 12:43:27;;;;;;;4.10;2.90;;;;;;;;;;5110845;27;20083;-81
2023/07/01 12:45:53;;;;;;;4.45;3.03;;;;;;;;;;5088695;27;20169;-82
2023/07/01 12:48:20;;;;;;;5.65;3.67;;;;;;;;;;5091628;27;20402;-79
2023/07/01 12:50:46;;;;;;;5.33;3.70;;;;;;;;;;5109562;27;20047;-83
2023/07/01 12:53:14;;;;;;;4.90;3.97;;;;;;;;;;5090319;27;20046;-82
2023/07/01 12:55:40;;;;;;;4.65;3.92;;;;;;;;;;5093114;27;20050;-78
2023/07/01 12:58:06;;;;;;;7.20;4.50;;;;;;;;;;5111769;27;20039;-83
2023/07/01 13:00:33;;;;;;;5.90;4.40;;;;;;;;;;5108701;27;20055;-83
2023/07/01 13:02:59;;;;;;;5.97;4.65;;;;;;;;;;5072530;27;20035;-81
2023/07/01 13:05:25;;;;;;;8.25;5.10;;;;;;;;;;5087581;27;20095;-80
2023/07/01 13:07:52;;;;;;;12.40;5.10;;;;;;;;;;5105836;27;20037;-81
2023/07/01 13:10:19;;;;;;;8.43;5.38;;;;;;;;;;5086025;28;20407;-84
2023/07/01 13:12:45;;;;;;;7.85;5.32;;;;;;;;;;5067569;28;20062;-82
2023/07/01 13:15:44;;;;;;;5.10;4.63;;;;;;;;;;5085960;28;20058;-85
2023/07/01 13:18:10;;;;;;;6.35;4.63;;;;;;;;;;5040492;28;20095;-83
2023/07/01 13:20:36;;;;;;;8.35;4.20;;;;;;;;;;5090976;28;20708;-82
2023/07/01 13:23:02;;;;;;;6.78;4.50;;;;;;;;;;5088164;28;20040;-81
2023/07/01 13:25:28;;;;;;;9.82;4.88;;;;;;;;;;5087024;28;20048;-82
2023/07/01 13:27:55;;;;;;;7.82;4.82;;;;;;;;;;5089340;28;20510;-79
2023/07/01 13:30:40;;;;;;;6.38;4.00;;;;;;;;;;5089642;28;20047;-84
2023/07/01 13:33:06;;;;;;;5.75;4.45;;;;;;;;;;5087785;28;20043;-81
2023/07/01 13:35:34;;;;;;;6.85;3.83;;;;;;;;;;5081964;28;20062;-82
2023/07/01 13:38:09;;;;;;;6.75;3.60;;;;;;;;;;5089591;28;20040;-82
2023/07/01 13:40:37;;;;;;;4.72;3.67;;;;;;;;;;5083819;28;20040;-79
2023/07/01 13:43:06;;;;;;;5.20;3.50;;;;;;;;;;5091634;28;20038;-82
2023/07/01 13:45:33;;;;;;;8.30;3.92;;;;;;;;;;5089734;28;20086;-80
2023/07/01 13:47:59;;;;;;;5.15;3.45;;;;;;;;;;5086393;28;20031;-81
2023/07/01 13:50:25;;;;;;;3.90;3.42;;;;;;;;;;5088152;28;20039;-82
2023/07/01 13:52:53;;;;;;;5.32;3.70;;;;;;;;;;5090819;28;20048;-81
2023/07/01 13:55:19;;;;;;;4.35;2.97;;;;;;;;;;5086824;28;20042;-81
2023/07/01 13:57:49;;;;;;;5.05;3.13;;;;;;;;;;5088090;28;20050;-78
2023/07/01 14:00:21;;;;;;;4.95;3.10;;;;;;;;;;5088824;28;20040;-82
2023/07/01 14:02:47;;;;;;;3.67;2.85;;;;;;;;;;5083282;28;20495;-82
2023/07/01 14:05:16;;;;;;;5.22;2.92;;;;;;;;;;5086677;27;20057;-84
2023/07/01 14:07:42;;;;;;;5.97;3.17;;;;;;;;;;5085584;28;20059;-82
2023/07/01 14:10:20;;;;;;;5.45;3.10;;;;;;;;;;5088190;28;20060;-80
2023/07/01 14:12:46;;;;;;;3.90;2.50;;;;;;;;;;5085190;27;20525;-82
2023/07/01 14:15:23;;;;;;;3.80;2.60;;;;;;;;;;5087260;28;20305;-82
2023/07/01 14:17:49;;;;;;;7.72;2.58;;;;;;;;;;5087916;28;20063;-82
2023/07/01 14:20:16;;;;;;;6.72;2.47;;;;;;;;;;5086284;28;20162;-79
2023/07/01 14:22:46;;;;;;;4.93;2.20;;;;;;;;;;5090994;28;20044;-83
2023/07/01 14:25:22;;;;;;;3.25;1.85;;;;;;;;;;5083704;28;20134;-82
2023/07/01 14:27:48;;;;;;;3.63;2.15;;;;;;;;;;5092107;28;20088;-80
2023/07/01 14:30:15;;;;;;;2.92;1.90;;;;;;;;;;5077305;27;20621;-77
2023/07/01 14:32:41;;;;;;;6.07;2.40;;;;;;;;;;5089087;28;20074;-80
2023/07/01 14:35:10;;;;;;;4.63;2.33;;;;;;;;;;5082523;28;20055;-82
2023/07/01 14:37:36;;;;;;;6.80;2.92;;;;;;;;;;5106084;27;20526;-81
2023/07/01 14:40:04;;;;;;;4.50;2.78;;;;;;;;;;5087632;28;20396;-80
2023/07/01 14:42:33;;;;;;;3.17;2.70;;;;;;;;;;5067591;28;20047;-81